Time;durP1;ratioP1;P1;durP2;ratioP2;P2;SDS_P1;SDS_P2;PMS_P1;PMS_P2;Temp;Humidity;BMP_temperature;BMP_pressure;BME280_temperature;BME280_humidity;BME280_pressure;Samples;Min_cycle;Max_cycle;Signal;HPM_P1;HPM_P2
2023/08/29 00:00:58;;;;;;;2.30;2.10;;;20.20;83.30;;;;;;5078373;28;20685;-72
2023/08/29 00:03:27;;;;;;;4.83;2.53;;;20.20;83.40;;;;;;5080764;28;20288;-72
2023/08/29 00:06:01;;;;;;;2.60;2.40;;;20.20;83.40;;;;;;5092732;28;20207;-72
2023/08/29 00:08:29;;;;;;;2.90;2.50;;;20.20;83.40;;;;;;5076071;28;20437;-72
2023/08/29 00:10:56;;;;;;;2.43;2.23;;;20.10;83.20;;;;;;5091158;28;20212;-72
2023/08/29 00:13:23;;;;;;;2.60;2.40;;;20.10;83.10;;;;;;5077768;28;20194;-72
2023/08/29 00:15:50;;;;;;;3.23;2.33;;;20.10;82.90;;;;;;5090846;28;20825;-72
2023/08/29 00:18:19;;;;;;;2.70;2.50;;;20.10;82.90;;;;;;5078608;28;20571;-72
2023/08/29 00:20:45;;;;;;;2.80;2.57;;;20.10;82.60;;;;;;5089046;28;20220;-72
2023/08/29 00:23:12;;;;;;;2.77;2.10;;;20.10;82.30;;;;;;5094048;28;20209;-72
2023/08/29 00:25:41;;;;;;;3.20;2.17;;;20.10;82.50;;;;;;5083387;28;20707;-72
2023/08/29 00:28:08;;;;;;;2.93;2.37;;;20.10;82.70;;;;;;5088277;28;20197;-72
2023/08/29 00:30:37;;;;;;;2.57;2.37;;;20.10;82.50;;;;;;5092185;28;20201;-72
2023/08/29 00:33:05;;;;;;;3.57;2.47;;;20.10;82.90;;;;;;5076382;28;20633;-72
2023/08/29 00:35:34;;;;;;;2.43;2.23;;;20.10;83.30;;;;;;5075840;28;20201;-72
2023/08/29 00:38:01;;;;;;;3.90;2.70;;;20.00;83.20;;;;;;5087986;28;20252;-72
2023/08/29 00:40:30;;;;;;;2.53;2.33;;;20.00;83.60;;;;;;5092712;28;20239;-72
2023/08/29 00:42:59;;;;;;;3.00;2.10;;;20.00;83.80;;;;;;5072603;28;20708;-72
2023/08/29 00:45:27;;;;;;;2.83;2.50;;;20.00;83.70;;;;;;5075731;28;20569;-72
2023/08/29 00:47:54;;;;;;;2.80;2.30;;;20.00;83.60;;;;;;5093921;28;20311;-72
2023/08/29 00:50:21;;;;;;;2.90;2.27;;;20.00;83.80;;;;;;5084693;28;20202;-71
2023/08/29 00:52:48;;;;;;;3.17;2.57;;;20.00;83.80;;;;;;5073366;28;20201;-72
2023/08/29 00:55:16;;;;;;;5.10;2.63;;;20.10;83.30;;;;;;5074726;28;20220;-71
2023/08/29 00:57:44;;;;;;;3.90;2.40;;;20.10;83.30;;;;;;5073323;28;20217;-71
2023/08/29 01:00:14;;;;;;;2.37;2.17;;;20.10;83.30;;;;;;5073056;28;20445;-72
2023/08/29 01:02:40;;;;;;;2.63;2.13;;;20.00;83.60;;;;;;5083077;28;20553;-71
2023/08/29 01:05:08;;;;;;;2.73;2.30;;;20.10;83.60;;;;;;5077575;28;20225;-72
2023/08/29 01:07:36;;;;;;;2.60;2.40;;;20.00;83.40;;;;;;5073332;28;20576;-71
2023/08/29 01:10:04;;;;;;;2.60;2.40;;;20.10;83.70;;;;;;5073215;28;20224;-72
2023/08/29 01:12:43;;;;;;;3.13;2.30;;;20.10;83.60;;;;;;5073887;28;20260;-71
2023/08/29 01:15:18;;;;;;;4.63;2.60;;;20.10;83.90;;;;;;5078768;28;20497;-72
2023/08/29 01:17:50;;;;;;;2.60;2.40;;;20.10;83.30;;;;;;5072991;28;20197;-73
2023/08/29 01:20:18;;;;;;;3.10;2.50;;;20.10;83.30;;;;;;5072411;28;20217;-72
2023/08/29 01:22:55;;;;;;;2.93;2.63;;;20.10;83.80;;;;;;5082748;28;20219;-72
2023/08/29 01:25:30;;;;;;;2.87;2.67;;;20.10;84.10;;;;;;5076133;28;20589;-72
2023/08/29 01:28:00;;;;;;;2.60;2.40;;;20.10;84.10;;;;;;5073376;28;20577;-71
2023/08/29 01:30:28;;;;;;;2.67;2.47;;;20.10;84.20;;;;;;5083776;28;20227;-71
2023/08/29 01:32:55;;;;;;;2.60;2.40;;;20.10;84.30;;;;;;5080779;28;20220;-72
2023/08/29 01:35:23;;;;;;;2.43;2.13;;;20.10;84.10;;;;;;5076146;28;20205;-72
2023/08/29 01:37:50;;;;;;;3.87;2.93;;;20.10;84.00;;;;;;5081962;28;20231;-72
2023/08/29 01:40:17;;;;;;;3.50;2.40;;;20.10;84.10;;;;;;5091134;28;20642;-71
2023/08/29 01:42:43;;;;;;;3.10;2.20;;;20.10;84.30;;;;;;5074842;28;20207;-72
2023/08/29 01:45:12;;;;;;;3.33;2.60;;;20.10;84.30;;;;;;5076616;28;20301;-72
2023/08/29 01:47:38;;;;;;;3.30;2.47;;;20.10;84.20;;;;;;5087076;28;20208;-72
2023/08/29 01:50:08;;;;;;;3.23;2.70;;;20.10;84.40;;;;;;5087196;28;20256;-72
2023/08/29 01:52:36;;;;;;;3.63;2.20;;;20.10;84.40;;;;;;5080065;28;20517;-72
2023/08/29 01:55:03;;;;;;;2.10;2.00;;;20.10;85.10;;;;;;5091236;28;20216;-72
2023/08/29 01:57:34;;;;;;;2.90;2.60;;;20.10;84.60;;;;;;5091629;28;20205;-73
2023/08/29 02:00:02;;;;;;;2.63;2.30;;;20.10;84.10;;;;;;5092692;28;20201;-72
2023/08/29 02:02:30;;;;;;;2.90;2.70;;;20.10;84.00;;;;;;5086551;28;20300;-72
2023/08/29 02:04:57;;;;;;;4.20;2.70;;;20.00;83.60;;;;;;5083811;28;20210;-71
2023/08/29 02:07:24;;;;;;;4.20;2.70;;;20.00;83.40;;;;;;5083770;28;20225;-71
2023/08/29 02:09:50;;;;;;;2.90;2.70;;;20.00;83.20;;;;;;5073354;28;20204;-71
2023/08/29 02:12:17;;;;;;;3.07;2.77;;;19.90;83.00;;;;;;5075138;28;20232;-71
2023/08/29 02:14:44;;;;;;;2.90;2.70;;;19.80;82.90;;;;;;5078382;28;20562;-71
2023/08/29 02:17:11;;;;;;;5.33;3.00;;;19.80;82.90;;;;;;5060167;28;20209;-72
2023/08/29 02:19:39;;;;;;;2.77;2.57;;;19.70;82.90;;;;;;5091300;28;20488;-73
2023/08/29 02:22:06;;;;;;;4.60;3.00;;;19.80;83.50;;;;;;5089124;28;20205;-72
2023/08/29 02:24:32;;;;;;;2.70;2.50;;;19.80;83.70;;;;;;5092062;28;20228;-72
2023/08/29 02:26:59;;;;;;;2.67;2.47;;;19.80;84.00;;;;;;5081210;28;20217;-72
2023/08/29 02:29:26;;;;;;;3.60;2.57;;;19.90;83.70;;;;;;5087020;28;20594;-72
2023/08/29 02:31:53;;;;;;;2.87;2.60;;;19.90;83.60;;;;;;5091552;28;20196;-72
2023/08/29 02:34:20;;;;;;;4.50;2.83;;;19.90;83.80;;;;;;5071782;28;20216;-71
2023/08/29 02:36:48;;;;;;;3.67;3.37;;;19.80;83.60;;;;;;5088294;28;20234;-72
2023/08/29 02:39:15;;;;;;;4.80;4.30;;;19.80;83.80;;;;;;5083129;28;21069;-71
2023/08/29 02:41:41;;;;;;;6.07;4.83;;;19.80;83.90;;;;;;5071778;28;20467;-72
2023/08/29 02:44:08;;;;;;;13.00;9.23;;;19.90;84.20;;;;;;5074097;28;20220;-72
2023/08/29 02:46:35;;;;;;;13.10;11.70;;;19.90;84.00;;;;;;5085351;28;20207;-72
2023/08/29 02:49:02;;;;;;;9.87;6.20;;;19.90;83.80;;;;;;5091443;28;20457;-71
2023/08/29 02:51:29;;;;;;;4.47;4.07;;;19.80;83.60;;;;;;5072459;28;20227;-72
2023/08/29 02:53:57;;;;;;;3.53;3.23;;;19.70;83.70;;;;;;5087826;28;20204;-72
2023/08/29 02:56:24;;;;;;;4.67;3.03;;;19.70;83.80;;;;;;5086423;28;20203;-72
2023/08/29 02:58:50;;;;;;;3.00;2.80;;;19.60;83.50;;;;;;5083569;28;20224;-72
2023/08/29 03:01:17;;;;;;;3.83;3.20;;;19.60;83.80;;;;;;5091284;28;20208;-71
2023/08/29 03:03:44;;;;;;;3.77;2.70;;;19.60;83.60;;;;;;5089266;28;20197;-72
2023/08/29 03:06:11;;;;;;;2.83;2.63;;;19.70;83.90;;;;;;5095021;28;20197;-72
2023/08/29 03:08:37;;;;;;;3.77;2.90;;;19.70;83.80;;;;;;5095345;28;20583;-72
2023/08/29 03:11:06;;;;;;;3.20;2.90;;;19.70;83.80;;;;;;5045193;28;20233;-71
2023/08/29 03:13:32;;;;;;;2.90;2.70;;;19.70;83.80;;;;;;5088343;28;20200;-71
2023/08/29 03:16:00;;;;;;;3.20;2.73;;;19.70;83.70;;;;;;5077724;28;20228;-72
2023/08/29 03:18:27;;;;;;;3.10;2.80;;;19.70;83.70;;;;;;5075592;28;20205;-72
2023/08/29 03:20:54;;;;;;;3.00;2.53;;;19.60;83.90;;;;;;5075249;28;20213;-71
2023/08/29 03:23:21;;;;;;;3.60;2.80;;;19.50;84.20;;;;;;5086131;28;20203;-71
2023/08/29 03:25:48;;;;;;;3.77;2.70;;;19.50;84.40;;;;;;5079342;28;20224;-71
2023/08/29 03:28:16;;;;;;;3.20;2.73;;;19.50;84.40;;;;;;5094171;28;20288;-71
2023/08/29 03:30:43;;;;;;;3.67;2.97;;;19.50;84.50;;;;;;5081540;28;20198;-72
2023/08/29 03:33:11;;;;;;;3.10;2.57;;;19.50;84.70;;;;;;5090471;28;20217;-71
2023/08/29 03:35:37;;;;;;;3.60;3.30;;;19.40;84.60;;;;;;5112985;28;20200;-72
2023/08/29 03:38:04;;;;;;;3.87;2.83;;;19.40;84.60;;;;;;5082660;28;20196;-72
2023/08/29 03:40:31;;;;;;;3.00;2.80;;;19.40;84.70;;;;;;5085553;28;20224;-72
2023/08/29 03:42:58;;;;;;;2.97;2.77;;;19.40;84.70;;;;;;5082045;28;20210;-72
2023/08/29 03:45:26;;;;;;;4.00;3.17;;;19.50;84.70;;;;;;5081693;28;20331;-72
2023/08/29 03:47:53;;;;;;;4.57;2.93;;;19.50;84.70;;;;;;5093412;28;20202;-71
2023/08/29 03:50:21;;;;;;;3.37;3.07;;;19.50;85.40;;;;;;5076474;28;20220;-72
2023/08/29 03:52:47;;;;;;;3.77;3.37;;;19.50;84.60;;;;;;5093358;28;20216;-72
2023/08/29 03:55:14;;;;;;;3.17;2.97;;;19.50;84.70;;;;;;5077897;28;20696;-72
2023/08/29 03:57:41;;;;;;;3.50;3.20;;;19.40;84.80;;;;;;5075466;28;20190;-72
2023/08/29 04:00:10;;;;;;;3.40;2.80;;;19.40;85.10;;;;;;5074428;28;20239;-72
2023/08/29 04:02:39;;;;;;;3.30;3.00;;;19.30;85.20;;;;;;5085004;28;20283;-72
2023/08/29 04:05:14;;;;;;;6.67;3.40;;;19.30;85.40;;;;;;5094842;28;20204;-72
2023/08/29 04:07:42;;;;;;;4.30;3.20;;;19.30;85.60;;;;;;5094430;28;20277;-72
2023/08/29 04:10:09;;;;;;;3.33;2.87;;;19.30;85.60;;;;;;5094200;28;20648;-72
2023/08/29 04:12:36;;;;;;;3.73;3.10;;;19.30;85.80;;;;;;5094490;28;20228;-72
2023/08/29 04:15:03;;;;;;;3.47;3.17;;;19.30;85.90;;;;;;5080412;28;20705;-72
2023/08/29 04:17:30;;;;;;;5.30;3.27;;;19.30;86.00;;;;;;5074439;28;20301;-71
2023/08/29 04:20:00;;;;;;;3.73;3.30;;;19.20;86.00;;;;;;5075989;28;20225;-72
2023/08/29 04:22:26;;;;;;;4.10;3.63;;;19.20;86.00;;;;;;5076385;28;20684;-71
2023/08/29 04:24:53;;;;;;;4.20;3.80;;;19.30;86.00;;;;;;5078597;28;20231;-72
2023/08/29 04:27:21;;;;;;;3.80;3.23;;;19.30;85.90;;;;;;5079282;28;20197;-72
2023/08/29 04:29:48;;;;;;;3.87;2.93;;;19.40;85.90;;;;;;5095087;28;20267;-72
2023/08/29 04:32:15;;;;;;;3.43;2.97;;;19.40;85.90;;;;;;5097851;28;20224;-74
2023/08/29 04:34:42;;;;;;;4.17;3.10;;;19.50;86.10;;;;;;5097165;28;20193;-72
2023/08/29 04:37:11;;;;;;;3.37;3.00;;;19.50;85.80;;;;;;5083487;28;20275;-72
2023/08/29 04:39:37;;;;;;;3.67;3.10;;;19.50;85.70;;;;;;5091701;28;20260;-70
2023/08/29 04:42:06;;;;;;;3.57;3.27;;;19.50;85.70;;;;;;5093044;28;20230;-72
2023/08/29 04:44:33;;;;;;;3.93;3.53;;;19.60;85.60;;;;;;5022657;28;20796;-72
2023/08/29 04:47:00;;;;;;;3.30;3.03;;;19.50;85.70;;;;;;5088540;28;20248;-71
2023/08/29 04:49:27;;;;;;;5.53;3.77;;;19.40;85.90;;;;;;5092767;28;20744;-71
2023/08/29 04:51:54;;;;;;;5.13;3.77;;;19.30;86.20;;;;;;5076340;28;20284;-71
2023/08/29 04:54:22;;;;;;;3.97;3.57;;;19.30;86.60;;;;;;5079228;28;20668;-71
2023/08/29 04:56:49;;;;;;;4.60;3.20;;;19.30;86.70;;;;;;5081339;28;20460;-71
2023/08/29 04:59:16;;;;;;;9.53;5.50;;;19.40;86.60;;;;;;5091245;28;20230;-71
2023/08/29 05:01:43;;;;;;;8.23;4.47;;;19.40;86.60;;;;;;5093613;28;20204;-71
2023/08/29 05:04:09;;;;;;;4.97;3.77;;;19.40;86.60;;;;;;5074601;28;20233;-72
2023/08/29 05:06:38;;;;;;;3.40;3.10;;;19.40;86.50;;;;;;5073046;28;21086;-72
2023/08/29 05:09:06;;;;;;;3.80;3.50;;;19.40;86.50;;;;;;5088840;28;20518;-72
2023/08/29 05:11:34;;;;;;;4.57;3.70;;;19.30;86.40;;;;;;5074933;28;20295;-71
2023/08/29 05:14:02;;;;;;;5.17;3.73;;;19.40;86.60;;;;;;5091207;28;20220;-71
2023/08/29 05:16:29;;;;;;;3.83;3.53;;;19.40;86.70;;;;;;5072989;28;20572;-70
2023/08/29 05:18:56;;;;;;;5.10;3.80;;;19.30;86.60;;;;;;5077081;28;20300;-72
2023/08/29 05:21:23;;;;;;;4.60;3.80;;;19.30;86.80;;;;;;5091480;28;20584;-71
2023/08/29 05:23:49;;;;;;;4.13;3.73;;;19.30;87.00;;;;;;5078021;28;20247;-71
2023/08/29 05:26:16;;;;;;;3.50;3.20;;;19.30;87.20;;;;;;5086438;28;20454;-72
2023/08/29 05:28:44;;;;;;;4.30;3.60;;;19.30;87.50;;;;;;5078979;28;20197;-71
2023/08/29 05:31:11;;;;;;;5.10;3.73;;;19.40;87.30;;;;;;5078215;28;20206;-71
2023/08/29 05:33:38;;;;;;;4.53;4.13;;;19.50;87.10;;;;;;5074267;28;20225;-72
2023/08/29 05:36:05;;;;;;;3.93;3.53;;;19.50;87.00;;;;;;5072693;28;20224;-72
2023/08/29 05:38:32;;;;;;;4.93;3.70;;;19.60;87.10;;;;;;5081691;28;20304;-72
2023/08/29 05:40:59;;;;;;;4.53;4.00;;;19.60;87.00;;;;;;5082667;28;20667;-71
2023/08/29 05:43:26;;;;;;;4.60;3.73;;;19.60;86.90;;;;;;5076251;28;20216;-71
2023/08/29 05:45:55;;;;;;;4.30;3.90;;;19.60;86.90;;;;;;5073025;28;20198;-72
2023/08/29 05:48:22;;;;;;;4.83;3.90;;;19.70;87.00;;;;;;5083605;28;20296;-72
2023/08/29 05:50:49;;;;;;;4.60;4.20;;;19.60;86.70;;;;;;5081821;28;20235;-73
2023/08/29 05:53:16;;;;;;;4.17;3.77;;;19.60;87.00;;;;;;5073480;28;20201;-72
2023/08/29 05:55:43;;;;;;;4.83;4.33;;;19.60;87.10;;;;;;5073585;28;20237;-72
2023/08/29 05:58:10;;;;;;;4.60;4.20;;;19.60;87.00;;;;;;5077873;28;20193;-72
2023/08/29 06:00:37;;;;;;;4.43;4.03;;;19.70;87.00;;;;;;5078858;28;20239;-72
2023/08/29 06:03:07;;;;;;;4.03;3.63;;;19.60;86.80;;;;;;5091746;28;20455;-72
2023/08/29 06:05:36;;;;;;;4.07;3.70;;;19.60;87.10;;;;;;5090573;28;20276;-72
2023/08/29 06:08:04;;;;;;;5.47;4.80;;;19.50;87.20;;;;;;5082829;28;20307;-72
2023/08/29 06:10:33;;;;;;;4.90;4.50;;;19.40;87.60;;;;;;5076275;28;20204;-70
2023/08/29 06:13:00;;;;;;;4.77;4.27;;;19.40;87.60;;;;;;5091557;28;20569;-70
2023/08/29 06:15:27;;;;;;;6.17;4.40;;;19.40;87.90;;;;;;5080472;28;20283;-71
2023/08/29 06:17:55;;;;;;;4.60;4.20;;;19.40;88.60;;;;;;5079818;28;20447;-71
2023/08/29 06:20:23;;;;;;;5.03;4.50;;;19.50;88.50;;;;;;5088056;28;20224;-71
2023/08/29 06:22:50;;;;;;;4.60;4.20;;;19.60;87.80;;;;;;5083436;28;20208;-71
2023/08/29 06:25:17;;;;;;;6.27;4.57;;;19.60;87.60;;;;;;5072054;28;20229;-71
2023/08/29 06:27:43;;;;;;;4.60;4.20;;;19.60;87.50;;;;;;5079498;28;20455;-71
2023/08/29 06:30:14;;;;;;;4.87;3.87;;;19.70;87.40;;;;;;5076876;28;20464;-72
2023/08/29 06:32:41;;;;;;;4.50;4.10;;;19.60;87.20;;;;;;5072230;28;20455;-70
2023/08/29 06:35:09;;;;;;;4.33;3.93;;;19.60;87.10;;;;;;5090194;28;20551;-71
2023/08/29 06:37:37;;;;;;;4.77;3.77;;;19.60;87.00;;;;;;5089791;28;20225;-71
2023/08/29 06:40:05;;;;;;;5.83;4.60;;;19.60;87.20;;;;;;5077226;28;20221;-71
2023/08/29 06:42:32;;;;;;;4.87;4.10;;;19.60;87.20;;;;;;5075911;28;20283;-71
2023/08/29 06:45:00;;;;;;;4.40;3.77;;;19.50;87.30;;;;;;5074272;28;20195;-71
2023/08/29 06:47:27;;;;;;;5.40;4.90;;;19.50;87.70;;;;;;5041086;28;20209;-71
2023/08/29 06:49:55;;;;;;;8.00;4.57;;;19.50;87.70;;;;;;5078702;28;20201;-71
2023/08/29 06:52:21;;;;;;;5.00;4.50;;;19.60;87.70;;;;;;5095470;28;20462;-71
2023/08/29 06:54:50;;;;;;;5.73;4.13;;;19.60;87.70;;;;;;5089245;28;20239;-70
2023/08/29 06:57:17;;;;;;;4.67;4.27;;;19.50;87.70;;;;;;5080739;28;21042;-71
2023/08/29 06:59:44;;;;;;;4.73;4.33;;;19.60;88.00;;;;;;5083632;28;20231;-71
2023/08/29 07:02:10;;;;;;;4.93;4.43;;;19.60;87.80;;;;;;5089082;28;20191;-71
2023/08/29 07:04:37;;;;;;;4.83;4.33;;;19.60;87.40;;;;;;5087619;28;20300;-70
2023/08/29 07:07:05;;;;;;;4.87;4.20;;;19.60;87.50;;;;;;5085348;28;20295;-71
2023/08/29 07:09:32;;;;;;;4.47;4.07;;;19.70;87.50;;;;;;5082184;28;20210;-70
2023/08/29 07:12:00;;;;;;;4.70;4.30;;;19.60;87.00;;;;;;5089255;28;20277;-71
2023/08/29 07:14:27;;;;;;;5.60;3.97;;;19.60;87.40;;;;;;5078375;28;20225;-71
2023/08/29 07:16:54;;;;;;;4.43;4.03;;;19.60;87.00;;;;;;5075099;28;20213;-71
2023/08/29 07:19:20;;;;;;;5.07;4.40;;;19.70;86.90;;;;;;5090363;28;20298;-71
2023/08/29 07:21:48;;;;;;;5.13;4.00;;;19.60;86.60;;;;;;5088675;28;20217;-71
2023/08/29 07:24:15;;;;;;;5.87;3.90;;;19.60;86.70;;;;;;5086053;28;20580;-71
2023/08/29 07:26:42;;;;;;;3.87;3.57;;;19.70;86.90;;;;;;5083653;28;20656;-71
2023/08/29 07:29:10;;;;;;;6.00;4.00;;;19.80;86.70;;;;;;5095357;28;20232;-71
2023/08/29 07:31:37;;;;;;;3.87;3.50;;;19.90;86.50;;;;;;5088490;28;20256;-71
2023/08/29 07:34:03;;;;;;;4.03;3.73;;;19.90;86.30;;;;;;5074857;28;20205;-71
2023/08/29 07:36:30;;;;;;;4.00;3.70;;;20.00;86.10;;;;;;5075288;28;20371;-71
2023/08/29 07:38:57;;;;;;;4.57;3.63;;;20.00;85.90;;;;;;5079860;28;20297;-70
2023/08/29 07:41:24;;;;;;;4.07;3.53;;;20.10;85.60;;;;;;5087116;28;20354;-70
2023/08/29 07:43:51;;;;;;;4.03;3.63;;;20.10;85.40;;;;;;5074078;28;20681;-71
2023/08/29 07:46:19;;;;;;;4.37;3.97;;;20.10;85.40;;;;;;5074284;28;20205;-70
2023/08/29 07:48:46;;;;;;;6.40;3.70;;;20.20;84.50;;;;;;5074926;28;20575;-71
2023/08/29 07:51:13;;;;;;;4.20;3.80;;;20.20;85.00;;;;;;5089634;28;20347;-71
2023/08/29 07:53:39;;;;;;;3.40;3.10;;;20.30;84.70;;;;;;5091229;28;20225;-71
2023/08/29 07:56:06;;;;;;;2.97;2.73;;;20.30;84.50;;;;;;5093680;28;20551;-71
2023/08/29 07:58:33;;;;;;;4.17;3.30;;;20.40;84.40;;;;;;5076063;28;20292;-70
2023/08/29 08:01:01;;;;;;;4.23;3.67;;;20.50;83.70;;;;;;5087458;28;20234;-70
2023/08/29 08:03:30;;;;;;;5.00;3.50;;;20.50;83.70;;;;;;5082640;28;20223;-71
2023/08/29 08:05:57;;;;;;;3.47;3.17;;;20.50;83.50;;;;;;5073173;28;20205;-70
2023/08/29 08:08:24;;;;;;;3.67;3.30;;;20.60;83.50;;;;;;5074594;28;20205;-70
2023/08/29 08:10:49;;;;;;;3.83;3.40;;;20.50;82.70;;;;;;5072972;28;20207;-70
2023/08/29 08:13:16;;;;;;;3.30;3.00;;;20.50;82.90;;;;;;5075111;28;20193;-71
2023/08/29 08:15:43;;;;;;;4.00;3.57;;;20.50;82.80;;;;;;5076515;28;20211;-71
2023/08/29 08:18:10;;;;;;;4.70;3.90;;;20.50;82.50;;;;;;5072885;28;20325;-71
2023/08/29 08:20:38;;;;;;;5.33;3.50;;;20.40;82.60;;;;;;5075163;28;20230;-71
2023/08/29 08:23:06;;;;;;;4.13;3.73;;;20.40;82.90;;;;;;5084052;28;20291;-71
2023/08/29 08:25:33;;;;;;;5.43;3.80;;;20.50;82.90;;;;;;5053949;28;20256;-69
2023/08/29 08:28:00;;;;;;;4.87;3.70;;;20.60;82.80;;;;;;5073407;28;20270;-70
2023/08/29 08:30:28;;;;;;;4.53;3.40;;;20.60;82.60;;;;;;5072652;28;20660;-71
2023/08/29 08:32:55;;;;;;;5.70;4.00;;;20.60;82.70;;;;;;5091637;28;20205;-71
2023/08/29 08:35:22;;;;;;;4.00;3.60;;;20.60;82.70;;;;;;5088720;28;20661;-71
2023/08/29 08:37:50;;;;;;;4.43;4.00;;;20.70;82.60;;;;;;5072688;28;20260;-71
2023/08/29 08:40:17;;;;;;;4.70;3.70;;;20.70;82.30;;;;;;5072493;28;20228;-71
2023/08/29 08:42:45;;;;;;;4.03;3.60;;;20.70;82.80;;;;;;5073325;28;20314;-71
2023/08/29 08:45:12;;;;;;;5.20;3.70;;;20.80;82.90;;;;;;5080877;28;20671;-71
2023/08/29 08:47:39;;;;;;;4.17;3.77;;;20.80;82.80;;;;;;5092873;28;20228;-71
2023/08/29 08:50:08;;;;;;;3.97;3.67;;;20.90;82.70;;;;;;5091116;28;20240;-70
2023/08/29 08:52:36;;;;;;;4.63;3.70;;;20.90;82.50;;;;;;5073970;28;20303;-71
2023/08/29 08:55:05;;;;;;;4.10;3.70;;;21.00;82.90;;;;;;5076710;28;20296;-71
2023/08/29 08:57:32;;;;;;;4.10;3.70;;;21.00;82.40;;;;;;5073170;28;20211;-71
2023/08/29 08:59:59;;;;;;;4.33;3.93;;;21.00;82.20;;;;;;5071393;28;20223;-70
2023/08/29 09:02:27;;;;;;;6.83;4.20;;;21.00;82.60;;;;;;5072066;28;20304;-70
2023/08/29 09:04:54;;;;;;;5.10;4.53;;;21.00;82.30;;;;;;5082598;28;20669;-71
2023/08/29 09:07:21;;;;;;;4.30;3.80;;;21.00;81.80;;;;;;5077211;28;20267;-71
2023/08/29 09:10:09;;;;;;;4.33;3.70;;;20.90;81.90;;;;;;5072370;28;20198;-71
2023/08/29 09:12:36;;;;;;;6.53;4.10;;;20.90;82.30;;;;;;5071573;28;20189;-71
2023/08/29 09:15:05;;;;;;;4.60;4.07;;;20.90;82.20;;;;;;5075037;28;20202;-71
2023/08/29 09:17:33;;;;;;;4.53;3.73;;;21.00;82.70;;;;;;5082183;28;20236;-71
2023/08/29 09:20:00;;;;;;;4.70;4.30;;;21.00;82.60;;;;;;5071836;28;20205;-71
2023/08/29 09:22:28;;;;;;;4.30;3.60;;;21.00;82.60;;;;;;5089802;28;20848;-71
2023/08/29 09:25:03;;;;;;;4.40;4.00;;;21.00;82.70;;;;;;5092062;28;20231;-71
2023/08/29 09:27:40;;;;;;;5.00;4.33;;;21.00;82.50;;;;;;5054423;28;20196;-71
2023/08/29 09:30:11;;;;;;;4.00;3.20;;;20.90;82.60;;;;;;5070829;28;20713;-71
2023/08/29 09:32:41;;;;;;;5.07;3.90;;;20.90;83.20;;;;;;5071652;28;20259;-71
2023/08/29 09:35:08;;;;;;;4.30;3.90;;;21.00;82.80;;;;;;5087333;28;20228;-71
2023/08/29 09:37:40;;;;;;;5.00;4.30;;;20.90;82.70;;;;;;5070988;28;20728;-71
2023/08/29 09:40:09;;;;;;;4.40;4.00;;;21.00;83.00;;;;;;5071218;28;20190;-71
2023/08/29 09:42:38;;;;;;;6.33;4.50;;;21.10;82.90;;;;;;5072261;28;20321;-71
2023/08/29 09:45:08;;;;;;;4.93;4.43;;;21.20;82.50;;;;;;5081197;28;20200;-70
2023/08/29 09:47:35;;;;;;;4.10;3.80;;;21.10;80.00;;;;;;5070791;28;20229;-71
2023/08/29 09:50:03;;;;;;;4.00;3.70;;;21.20;80.70;;;;;;5036203;28;20221;-72
2023/08/29 09:52:32;;;;;;;5.27;4.77;;;21.30;80.60;;;;;;5073252;28;20220;-71
2023/08/29 09:55:02;;;;;;;4.93;4.43;;;21.50;80.30;;;;;;5075237;28;20319;-71
2023/08/29 09:57:31;;;;;;;5.03;4.57;;;21.70;80.40;;;;;;5083166;28;20292;-71
2023/08/29 10:00:02;;;;;;;4.50;4.10;;;21.80;78.90;;;;;;5091938;28;20240;-71
2023/08/29 10:02:31;;;;;;;4.67;4.27;;;22.00;78.30;;;;;;5091828;28;20211;-71
2023/08/29 10:05:05;;;;;;;3.73;3.30;;;22.10;79.00;;;;;;5089217;28;20196;-71
2023/08/29 10:07:39;;;;;;;4.40;4.00;;;22.30;79.10;;;;;;5089461;28;20224;-71
2023/08/29 10:10:08;;;;;;;3.80;3.17;;;22.40;77.20;;;;;;5072926;28;20196;-71
2023/08/29 10:12:35;;;;;;;4.13;3.73;;;22.40;77.20;;;;;;5070074;28;20563;-71
2023/08/29 10:15:05;;;;;;;4.17;3.70;;;22.50;76.30;;;;;;5070553;28;20202;-72
2023/08/29 10:17:33;;;;;;;4.53;3.33;;;22.50;75.50;;;;;;5071983;28;20208;-71
2023/08/29 10:20:04;;;;;;;4.03;3.60;;;22.40;75.00;;;;;;5070925;28;20256;-70
2023/08/29 10:22:31;;;;;;;3.97;2.90;;;22.40;75.40;;;;;;5070628;28;20213;-71
2023/08/29 10:25:00;;;;;;;3.77;3.20;;;22.50;76.10;;;;;;5084146;28;20251;-71
2023/08/29 10:27:27;;;;;;;3.37;3.07;;;22.60;76.90;;;;;;5071505;28;20281;-71
2023/08/29 10:29:55;;;;;;;4.77;3.37;;;22.70;76.70;;;;;;5070848;28;20220;-71
2023/08/29 10:32:24;;;;;;;4.10;3.40;;;22.80;76.30;;;;;;5078726;28;20256;-72
2023/08/29 10:34:52;;;;;;;3.40;3.07;;;22.90;75.60;;;;;;5077883;28;20211;-72
2023/08/29 10:37:21;;;;;;;3.23;2.93;;;23.10;76.10;;;;;;5072047;28;20204;-72
2023/08/29 10:39:50;;;;;;;3.50;3.20;;;23.20;75.70;;;;;;5070832;28;20207;-71
2023/08/29 10:42:17;;;;;;;3.60;3.30;;;23.30;73.70;;;;;;5071338;28;20685;-70
2023/08/29 10:44:46;;;;;;;3.50;3.20;;;23.10;72.60;;;;;;5078294;28;20213;-72
2023/08/29 10:47:19;;;;;;;3.30;3.00;;;23.00;73.90;;;;;;5097888;28;20177;-72
2023/08/29 10:49:48;;;;;;;3.30;3.00;;;23.10;73.50;;;;;;5103141;28;20333;-71
2023/08/29 10:52:18;;;;;;;3.97;3.57;;;23.10;73.50;;;;;;5109688;28;20187;-71
2023/08/29 10:54:46;;;;;;;3.33;3.03;;;23.10;73.20;;;;;;5094965;28;20189;-71
2023/08/29 10:57:29;;;;;;;3.57;2.90;;;23.10;73.20;;;;;;5091288;28;20211;-71
2023/08/29 10:59:57;;;;;;;3.37;2.63;;;23.10;73.20;;;;;;5096040;28;20189;-71
2023/08/29 11:02:30;;;;;;;2.60;2.40;;;23.30;74.30;;;;;;5093394;28;20241;-71
2023/08/29 11:05:16;;;;;;;3.27;2.73;;;23.50;74.40;;;;;;5072334;28;20205;-71
2023/08/29 11:07:43;;;;;;;3.90;3.07;;;23.70;73.60;;;;;;5071664;28;20225;-71
2023/08/29 11:10:18;;;;;;;3.40;2.63;;;23.80;72.30;;;;;;5089443;28;20561;-72
2023/08/29 11:13:09;;;;;;;3.23;2.00;;;24.00;72.20;;;;;;5092064;28;20193;-72
2023/08/29 11:16:17;;;;;;;3.47;2.53;;;24.20;72.90;;;;;;5076158;28;20209;-71
2023/08/29 11:18:44;;;;;;;2.67;2.30;;;24.40;72.00;;;;;;5072398;28;20216;-71
2023/08/29 11:21:12;;;;;;;2.57;2.30;;;24.50;71.90;;;;;;5073620;28;20192;-72
2023/08/29 11:23:41;;;;;;;2.27;2.10;;;24.70;72.70;;;;;;5070160;28;20231;-71
2023/08/29 11:26:10;;;;;;;2.60;2.13;;;24.80;71.50;;;;;;5077223;28;20543;-72
2023/08/29 11:28:42;;;;;;;2.40;2.13;;;24.90;70.80;;;;;;5038244;28;20213;-71
2023/08/29 11:31:09;;;;;;;2.77;2.53;;;25.00;69.50;;;;;;5074790;28;20228;-71
2023/08/29 11:33:37;;;;;;;4.17;2.20;;;25.10;69.00;;;;;;5072992;28;20252;-71
2023/08/29 11:36:06;;;;;;;3.30;2.17;;;25.20;67.80;;;;;;5073415;28;20209;-71
2023/08/29 11:38:35;;;;;;;2.63;2.00;;;25.30;68.50;;;;;;5052900;28;20294;-71
2023/08/29 11:41:05;;;;;;;3.10;2.20;;;25.40;67.80;;;;;;5081181;28;20319;-72
2023/08/29 11:43:32;;;;;;;2.30;2.03;;;25.50;67.50;;;;;;5083519;28;20205;-71
2023/08/29 11:46:01;;;;;;;3.73;2.03;;;25.50;68.00;;;;;;5073051;28;20630;-72
2023/08/29 11:48:29;;;;;;;2.23;2.00;;;25.70;67.40;;;;;;5078680;28;20207;-70
2023/08/29 11:50:57;;;;;;;2.10;1.90;;;25.80;67.60;;;;;;5083567;28;20251;-72
2023/08/29 11:53:29;;;;;;;2.17;1.90;;;25.90;66.80;;;;;;5072477;28;20185;-72
2023/08/29 11:55:59;;;;;;;2.10;1.60;;;25.90;67.00;;;;;;5073157;28;20291;-72
2023/08/29 11:58:28;;;;;;;2.23;1.83;;;26.00;66.80;;;;;;5077427;28;20311;-72
2023/08/29 12:00:55;;;;;;;2.13;1.90;;;26.00;66.70;;;;;;5092774;28;20201;-71
2023/08/29 12:03:25;;;;;;;2.30;1.80;;;26.00;65.90;;;;;;5093243;28;20220;-71
2023/08/29 12:05:52;;;;;;;2.70;2.27;;;25.90;64.70;;;;;;5093246;28;20561;-70
2023/08/29 12:08:35;;;;;;;2.97;2.00;;;25.70;63.10;;;;;;5088578;28;20566;-71
2023/08/29 12:11:03;;;;;;;2.90;1.83;;;25.50;62.30;;;;;;5073892;28;20229;-71
2023/08/29 12:13:30;;;;;;;2.97;1.70;;;25.30;64.50;;;;;;5072855;28;20212;-72
2023/08/29 12:15:57;;;;;;;3.13;1.70;;;25.20;65.00;;;;;;5072840;28;20220;-71
2023/08/29 12:18:26;;;;;;;2.77;1.97;;;25.30;64.80;;;;;;5073838;28;20613;-71
2023/08/29 12:20:53;;;;;;;2.87;1.90;;;25.30;64.20;;;;;;5081793;28;20210;-71
2023/08/29 12:23:27;;;;;;;2.87;1.50;;;25.20;63.70;;;;;;5075877;28;20229;-71
2023/08/29 12:25:56;;;;;;;1.90;1.50;;;25.10;64.60;;;;;;5088098;28;20230;-71
2023/08/29 12:28:25;;;;;;;2.80;1.77;;;25.20;65.30;;;;;;5090978;28;20200;-71
2023/08/29 12:30:56;;;;;;;1.70;1.60;;;25.30;63.70;;;;;;5092449;28;20548;-71
2023/08/29 12:33:25;;;;;;;1.70;1.60;;;25.30;64.10;;;;;;5091982;28;20189;-71
2023/08/29 12:35:52;;;;;;;1.80;1.60;;;25.30;64.40;;;;;;5076713;28;20639;-71
2023/08/29 12:38:20;;;;;;;1.93;1.80;;;25.30;64.10;;;;;;5072253;28;20229;-71
2023/08/29 12:40:47;;;;;;;1.80;1.60;;;25.30;64.10;;;;;;5072451;28;20221;-71
2023/08/29 12:43:16;;;;;;;4.73;1.67;;;25.40;64.10;;;;;;5075067;28;20757;-70
2023/08/29 12:45:45;;;;;;;2.50;1.77;;;25.40;63.30;;;;;;5086469;28;20223;-71
2023/08/29 12:48:12;;;;;;;4.43;2.30;;;25.40;63.70;;;;;;5084715;28;20366;-71
2023/08/29 12:50:39;;;;;;;1.63;1.53;;;25.50;63.20;;;;;;5072806;28;20200;-71